Meteo Giornale » Osservazioni meteo Gran Bretagna » Spadeadam

ore: 15:50 - Osservazioni Meteo Spadeadam
Lat. 55° 3' N Lon. 2° 33' W Alt. 325 metri s.l.m.

molto_nuvoloso Europe/London

10 °C

Molto Nuvoloso

Temp. 24 Ore

8 °C

18 °C

Ovest/Sud-Ovest

29.6 Km/h

Dew point 7 °C

Umidità 81 %

Visibilità  10 Km

Il sole sorge alle ore 05:46

Il sole tramonta alle ore 20:30

Data e Ora Cielo e Fenomeni T °C DP °C Um. % Pres. hPa Vis. km Vento km/h
Oggi h: 15:50 molto_nuvoloso Molto Nuvoloso 10 7 81 1004 10 O/SO 29.6
Oggi h: 14:50 molto_nuvoloso Molto Nuvoloso 9 7 87 1004 10 O/SO 27.8
Oggi h: 13:50 molto_nuvoloso Molto Nuvoloso 9 7 87 1004 10 O/SO 33.3
Oggi h: 12:50 molto_nuvoloso Molto Nuvoloso 9 6 81 1003 10 O/SO 24
Oggi h: 11:50 molto_nuvoloso Molto Nuvoloso 9 6 81 1004 10 O/SO 27.8
Oggi h: 10:50 coperto_pioggia Pioggia 8 5 81 1004 10 O/SO 18.5
Oggi h: 09:50 coperto_pioggia Pioggia Debole 9 4 70 1004 10 O 25.9
Oggi h: 08:50 molto_nuvoloso Molto Nuvoloso 11 7 76 1004 10 O/SO 18.5
Oggi h: 07:50 foschia Foschia 12 11 93 1004 6 S 18.5
Oggi h: 06:50 foschia Foschia 11 10 93 1004 5 S/SE 7.4
Oggi h: 05:50 foschia Foschia 11 10 93 1005 5 O 9.3
Oggi h: 04:50 foschia Foschia 13 11 87 1005 6 SO 24
Oggi h: 03:50 poco_nuvoloso Poco Nuvoloso 14 11 82 1006 10 S 25.9
Oggi h: 02:50 nuvoloso Nuvoloso 12 10 87 1007 10 S/SE 13
Oggi h: 01:50 molto_nuvoloso Molto Nuvoloso 14 10 76 1008 10 S 18.5
Oggi h: 00:50 nuvoloso Nuvoloso 14 11 82 1009 10 S 18.5
Ieri h: 23:50 molto_nuvoloso Molto Nuvoloso 14 11 82 1009 10 SE 13
Ieri h: 22:50 molto_nuvoloso Molto Nuvoloso 14 11 82 1010 10 S 14.8
Ieri h: 21:50 nuvoloso Nuvoloso 14 10 76 1011 10 E/SE 14.8
Ieri h: 20:50 poco_nuvoloso Poco Nuvoloso 14 10 76 1012 10 SE 16.7
Ieri h: 19:50 coperto Coperto 16 10 67 1012 10 E/SE 9.3
Ieri h: 18:50 molto_nuvoloso Molto Nuvoloso 18 8 51 1013 10 S/SO 13
Ieri h: 17:50 nuvoloso Nuvoloso 18 8 51 1014 10 S 22.2